createdAt,value
2023-04-19T00:01:28.441Z,99641.09
2023-04-19T00:03:56.786Z,99637.66
2023-04-19T00:06:24.693Z,99640.16
2023-04-19T00:08:51.353Z,99633.22
2023-04-19T00:11:18.465Z,99628.06
2023-04-19T00:13:45.054Z,99634.06
2023-04-19T00:16:11.690Z,99630.66
2023-04-19T00:18:38.853Z,99635.69
2023-04-19T00:21:05.829Z,99633.97
2023-04-19T00:23:32.543Z,99639.06
2023-04-19T00:25:59.091Z,99630.50
2023-04-19T00:28:26.239Z,99640.78
2023-04-19T00:30:52.887Z,99638.09
2023-04-19T00:33:19.969Z,99632.94
2023-04-19T00:35:46.565Z,99632.00
2023-04-19T00:38:13.065Z,99632.00
2023-04-19T00:40:39.594Z,99631.19
2023-04-19T00:43:06.174Z,99635.44
2023-04-19T00:45:34.916Z,99636.28
2023-04-19T00:48:01.940Z,99637.84
2023-04-19T00:50:29.014Z,99627.56
2023-04-19T00:52:57.761Z,99633.50
2023-04-19T00:55:24.676Z,99625.66
2023-04-19T00:57:52.294Z,99626.50
2023-04-19T01:00:20.487Z,99626.44
2023-04-19T01:02:47.935Z,99620.47
2023-04-19T01:05:15.161Z,99623.91
2023-04-19T01:07:42.944Z,99633.19
2023-04-19T01:10:09.934Z,99629.66
2023-04-19T01:12:36.598Z,99625.31
2023-04-19T01:15:03.344Z,99625.31
2023-04-19T01:17:32.357Z,99626.03
2023-04-19T01:20:03.920Z,99625.28
2023-04-19T01:22:30.630Z,99630.22
2023-04-19T01:24:57.298Z,99625.00
2023-04-19T01:27:24.090Z,99611.28
2023-04-19T01:29:50.851Z,99618.06
2023-04-19T01:32:17.661Z,99614.56
2023-04-19T01:34:44.265Z,99604.94
2023-04-19T01:37:10.873Z,99609.41
2023-04-19T01:39:37.439Z,99608.16
2023-04-19T01:42:04.450Z,99603.13
2023-04-19T01:44:31.615Z,99606.50
2023-04-19T01:46:58.257Z,99599.75
2023-04-19T01:49:25.012Z,99605.72
2023-04-19T01:51:51.536Z,99600.75
2023-04-19T01:54:18.247Z,99601.41
2023-04-19T01:56:44.976Z,99604.69
2023-04-19T01:59:11.509Z,99593.66
2023-04-19T02:01:38.026Z,99584.13
2023-04-19T02:04:04.868Z,99582.41
2023-04-19T02:06:31.955Z,99571.97
2023-04-19T02:08:58.951Z,99577.97
2023-04-19T02:11:25.577Z,99570.13
2023-04-19T02:13:52.163Z,99570.72
2023-04-19T02:16:18.750Z,99565.44
2023-04-19T02:18:46.845Z,99566.09
2023-04-19T02:21:13.584Z,99563.56
2023-04-19T02:23:40.205Z,99570.41
2023-04-19T02:26:06.730Z,99577.22
2023-04-19T02:28:33.494Z,99587.38
2023-04-19T02:31:05.162Z,99591.78
2023-04-19T02:33:32.108Z,99589.97
2023-04-19T02:35:58.599Z,99595.94
2023-04-19T02:38:25.600Z,99601.16
2023-04-19T02:40:52.120Z,99601.88
2023-04-19T02:43:18.706Z,99597.50
2023-04-19T02:45:45.247Z,99602.63
2023-04-19T02:48:11.800Z,99599.97
2023-04-19T02:50:41.359Z,99600.81
2023-04-19T02:53:07.897Z,99601.56
2023-04-19T02:55:34.464Z,99607.56
2023-04-19T02:58:01.015Z,99615.97
2023-04-19T03:00:28.145Z,99610.06
2023-04-19T03:02:56.784Z,99614.34
2023-04-19T03:05:23.886Z,99612.78
2023-04-19T03:07:50.632Z,99605.22
2023-04-19T03:10:17.311Z,99607.63
2023-04-19T03:12:43.936Z,99610.03
2023-04-19T03:15:11.127Z,99617.75
2023-04-19T03:17:37.864Z,99622.00
2023-04-19T03:20:09.743Z,99622.72
2023-04-19T03:22:36.360Z,99621.94
2023-04-19T03:25:03.210Z,99614.13
2023-04-19T03:27:29.740Z,99615.63
2023-04-19T03:29:57.412Z,99610.41
2023-04-19T03:32:23.986Z,99605.47
2023-04-19T03:34:50.583Z,99605.50
2023-04-19T03:37:17.127Z,99609.03
2023-04-19T03:39:43.622Z,99610.53
2023-04-19T03:42:10.688Z,99607.13
2023-04-19T03:44:37.422Z,99604.59
2023-04-19T03:47:04.014Z,99605.38
2023-04-19T03:49:30.737Z,99604.38
2023-04-19T03:51:57.255Z,99601.06
2023-04-19T03:54:23.774Z,99608.84
2023-04-19T03:56:50.352Z,99613.53
2023-04-19T03:59:16.886Z,99625.16
2023-04-19T04:01:43.533Z,99631.84
2023-04-19T04:04:10.400Z,99636.78
2023-04-19T04:06:37.167Z,99631.16
2023-04-19T04:09:04.084Z,99641.47
2023-04-19T04:11:31.428Z,99635.69
2023-04-19T04:13:57.976Z,99630.66
2023-04-19T04:16:24.593Z,99619.69
2023-04-19T04:18:51.155Z,99624.03
2023-04-19T04:21:17.657Z,99614.84
2023-04-19T04:23:44.196Z,99616.88
2023-04-19T04:26:11.119Z,99612.47
2023-04-19T04:28:38.139Z,99621.13
2023-04-19T04:31:04.743Z,99616.66
2023-04-19T04:33:32.283Z,99626.97
2023-04-19T04:35:59.180Z,99626.03
2023-04-19T04:38:25.773Z,99629.03
2023-04-19T04:40:53.935Z,99630.81
2023-04-19T04:43:25.967Z,99629.13
2023-04-19T04:45:55.730Z,99629.25
2023-04-19T04:48:22.455Z,99621.47
2023-04-19T04:50:49.105Z,99619.84
2023-04-19T04:53:15.798Z,99625.50
2023-04-19T04:55:42.331Z,99625.56
2023-04-19T04:58:08.853Z,99621.00
2023-04-19T05:00:36.063Z,99620.28
2023-04-19T05:03:03.532Z,99626.91
2023-04-19T05:05:30.424Z,99619.06
2023-04-19T05:07:57.040Z,99618.47
2023-04-19T05:10:23.699Z,99625.97
2023-04-19T05:12:50.282Z,99617.19
2023-04-19T05:15:17.080Z,99622.59
2023-04-19T05:17:43.816Z,99629.19
2023-04-19T05:20:11.106Z,99620.47
2023-04-19T05:22:38.185Z,99616.22
2023-04-19T05:25:06.078Z,99624.22
2023-04-19T05:27:32.626Z,99627.75
2023-04-19T05:29:59.197Z,99631.06
2023-04-19T05:32:26.334Z,99628.72
2023-04-19T05:34:52.869Z,99638.03
2023-04-19T05:37:19.450Z,99633.72
2023-04-19T05:39:46.180Z,99633.59
2023-04-19T05:42:12.762Z,99636.81
2023-04-19T05:44:39.290Z,99639.34
2023-04-19T05:47:05.868Z,99642.72
2023-04-19T05:49:32.403Z,99641.47
2023-04-19T05:51:58.939Z,99632.28
2023-04-19T05:54:25.595Z,99634.41
2023-04-19T05:56:52.126Z,99633.88
2023-04-19T05:59:18.655Z,99635.91
2023-04-19T06:01:45.613Z,99635.00
2023-04-19T06:04:12.291Z,99639.19
2023-04-19T06:06:39.266Z,99634.16
2023-04-19T06:09:07.131Z,99633.31
2023-04-19T06:11:42.701Z,99634.53
2023-04-19T06:14:16.966Z,99638.94
2023-04-19T06:16:43.763Z,99647.41
2023-04-19T06:19:10.313Z,99642.50
2023-04-19T06:21:36.939Z,99644.13
2023-04-19T06:24:03.928Z,99652.59
2023-04-19T06:26:30.603Z,99650.94
2023-04-19T06:28:57.227Z,99644.94
2023-04-19T06:31:23.964Z,99645.09
2023-04-19T06:33:50.850Z,99645.38
2023-04-19T06:36:17.628Z,99644.66
2023-04-19T06:38:46.864Z,99651.38
2023-04-19T06:41:13.525Z,99651.41
2023-04-19T06:43:41.976Z,99648.94
2023-04-19T06:46:10.440Z,99652.34
2023-04-19T06:48:37.116Z,99661.97
2023-04-19T06:51:03.982Z,99655.16
2023-04-19T06:53:30.680Z,99649.34
2023-04-19T06:56:01.320Z,99650.31
2023-04-19T06:58:29.060Z,99653.84
2023-04-19T07:00:56.221Z,99655.66
2023-04-19T07:03:23.084Z,99653.19
2023-04-19T07:05:52.174Z,99652.44
2023-04-19T07:08:18.778Z,99655.03
2023-04-19T07:10:45.346Z,99659.50
2023-04-19T07:13:12.130Z,99657.91
2023-04-19T07:15:38.692Z,99653.72
2023-04-19T07:18:05.522Z,99655.53
2023-04-19T07:20:32.341Z,99653.94
2023-04-19T07:22:59.644Z,99653.28
2023-04-19T07:25:26.661Z,99647.31
2023-04-19T07:27:54.653Z,99658.56
2023-04-19T07:30:21.538Z,99653.53
2023-04-19T07:32:48.318Z,99654.41
2023-04-19T07:35:15.076Z,99664.84
2023-04-19T07:37:43.106Z,99658.97
2023-04-19T07:40:10.240Z,99663.34
2023-04-19T07:42:36.849Z,99661.72
2023-04-19T07:45:03.679Z,99656.81
2023-04-19T07:47:31.407Z,99655.22
2023-04-19T07:49:58.005Z,99651.94
2023-04-19T07:52:24.557Z,99653.00
2023-04-19T07:54:51.129Z,99653.03
2023-04-19T07:57:17.692Z,99651.41
2023-04-19T07:59:44.390Z,99646.31
2023-04-19T08:02:11.102Z,99648.22
2023-04-19T08:04:38.033Z,99638.91
2023-04-19T08:07:04.951Z,99638.13
2023-04-19T08:09:34.027Z,99632.19
2023-04-19T08:12:01.526Z,99637.50
2023-04-19T08:14:37.677Z,99624.66
2023-04-19T08:17:23.354Z,99628.16
2023-04-19T08:19:52.885Z,99628.22
2023-04-19T08:22:20.471Z,99618.94
2023-04-19T08:24:50.029Z,99623.31
2023-04-19T08:27:16.612Z,99628.50
2023-04-19T08:29:43.628Z,99620.03
2023-04-19T08:32:11.706Z,99625.28
2023-04-19T08:34:39.433Z,99627.16
2023-04-19T08:37:07.359Z,99624.66
2023-04-19T08:39:34.653Z,99625.53
2023-04-19T08:42:10.949Z,99625.56
2023-04-19T08:45:02.327Z,99622.22
2023-04-19T08:47:34.484Z,99614.66
2023-04-19T08:52:47.749Z,99610.47
2023-04-19T08:55:19.164Z,99612.28
2023-04-19T08:57:45.693Z,99611.47
2023-04-19T09:00:12.659Z,99615.00
2023-04-19T09:02:47.484Z,99615.97
2023-04-19T09:05:16.204Z,99609.94
2023-04-19T09:07:42.871Z,99614.31
2023-04-19T09:10:12.345Z,99619.47
2023-04-19T09:12:40.701Z,99616.88
2023-04-19T09:15:09.228Z,99622.06
2023-04-19T09:17:36.925Z,99607.44
2023-04-19T09:20:05.282Z,99616.97
2023-04-19T09:22:32.377Z,99612.66
2023-04-19T09:27:34.861Z,99615.31
2023-04-19T09:30:03.500Z,99609.28
2023-04-19T09:32:46.305Z,99616.19
2023-04-19T09:35:13.006Z,99622.25
2023-04-19T09:38:04.126Z,99619.72
2023-04-19T09:40:28.461Z,99611.97
2023-04-19T09:43:08.741Z,99619.78
2023-04-19T09:45:43.557Z,99618.94
2023-04-19T09:48:11.297Z,99600.84
2023-04-19T09:50:57.725Z,99604.34
2023-04-19T09:53:30.604Z,99598.31
2023-04-19T09:56:01.900Z,99595.72
2023-04-19T09:58:38.281Z,99600.03
2023-04-19T10:01:15.793Z,99607.84
2023-04-19T10:03:45.891Z,99601.78
2023-04-19T10:06:40.033Z,99594.88
2023-04-19T10:09:04.506Z,99597.47
2023-04-19T10:11:43.040Z,99593.19
2023-04-19T10:14:11.917Z,99592.31
2023-04-19T10:16:39.203Z,99591.44
2023-04-19T10:19:11.217Z,99593.16
2023-04-19T10:21:38.555Z,99586.25
2023-04-19T10:24:05.947Z,99581.06
2023-04-19T10:27:12.222Z,99581.03
2023-04-19T10:29:57.186Z,99581.06
2023-04-19T10:32:27.174Z,99588.84
2023-04-19T10:34:56.618Z,99581.88
2023-04-19T10:37:26.032Z,99585.31
2023-04-19T10:39:53.038Z,99581.81
2023-04-19T10:42:19.585Z,99576.63
2023-04-19T10:45:27.624Z,99575.72
2023-04-19T10:47:54.229Z,99568.84
2023-04-19T10:50:24.007Z,99571.41
2023-04-19T10:52:50.783Z,99567.06
2023-04-19T10:55:19.596Z,99560.09
2023-04-19T10:58:03.977Z,99561.81
2023-04-19T11:00:32.549Z,99567.88
2023-04-19T11:03:36.842Z,99557.47
2023-04-19T11:06:18.969Z,99561.72
2023-04-19T11:08:45.563Z,99560.03
2023-04-19T11:11:13.892Z,99556.53
2023-04-19T11:13:42.858Z,99546.09
2023-04-19T11:16:10.085Z,99544.34
2023-04-19T11:18:36.633Z,99549.50
2023-04-19T11:21:03.711Z,99546.00
2023-04-19T11:23:30.366Z,99532.13
2023-04-19T11:25:57.210Z,99531.31
2023-04-19T11:28:24.679Z,99535.56
2023-04-19T11:30:52.398Z,99535.44
2023-04-19T11:33:25.181Z,99524.19
2023-04-19T11:35:51.721Z,99520.63
2023-04-19T11:38:18.257Z,99516.28
2023-04-19T11:40:44.840Z,99505.97
2023-04-19T11:43:11.448Z,99511.06
2023-04-19T11:45:39.965Z,99512.81
2023-04-19T11:48:08.146Z,99508.44
2023-04-19T11:50:37.857Z,99504.94
2023-04-19T11:53:22.062Z,99504.97
2023-04-19T11:55:57.885Z,99497.00
2023-04-19T11:58:32.054Z,99500.47
2023-04-19T12:01:06.651Z,99497.94
2023-04-19T12:03:35.511Z,99495.34
2023-04-19T12:06:04.115Z,99484.88
2023-04-19T12:08:36.340Z,99485.63
2023-04-19T12:11:04.351Z,99489.03
2023-04-19T12:13:31.977Z,99476.00
2023-04-19T12:15:59.220Z,99490.63
2023-04-19T12:18:27.445Z,99476.94
2023-04-19T12:20:54.950Z,99478.59
2023-04-19T12:23:21.859Z,99470.91
2023-04-19T12:25:49.121Z,99477.75
2023-04-19T12:28:17.171Z,99473.97
2023-04-19T12:30:44.210Z,99469.47
2023-04-19T12:33:10.948Z,99477.28
2023-04-19T12:35:38.568Z,99467.94
2023-04-19T12:38:05.372Z,99468.66
2023-04-19T12:40:32.204Z,99466.03
2023-04-19T12:42:58.864Z,99472.16
2023-04-19T12:45:25.444Z,99470.34
2023-04-19T12:47:52.106Z,99460.81
2023-04-19T12:50:18.723Z,99453.81
2023-04-19T12:52:46.088Z,99454.69
2023-04-19T12:55:12.824Z,99459.72
2023-04-19T12:57:39.576Z,99459.53
2023-04-19T13:00:07.437Z,99447.41
2023-04-19T13:02:35.184Z,99443.25
2023-04-19T13:05:02.492Z,99441.53
2023-04-19T13:07:29.872Z,99440.50
2023-04-19T13:09:57.075Z,99439.47
2023-04-19T13:12:24.196Z,99437.09
2023-04-19T13:14:52.357Z,99426.78
2023-04-19T13:17:20.285Z,99419.88
2023-04-19T13:19:47.622Z,99422.09
2023-04-19T13:22:14.676Z,99421.22
2023-04-19T13:24:41.424Z,99424.00
2023-04-19T13:27:09.117Z,99412.47
2023-04-19T13:29:36.215Z,99410.63
2023-04-19T13:32:03.142Z,99403.72
2023-04-19T13:34:29.739Z,99408.97
2023-04-19T13:36:57.698Z,99402.81
2023-04-19T13:39:24.407Z,99398.69
2023-04-19T13:41:51.255Z,99397.78
2023-04-19T13:44:18.233Z,99388.06
2023-04-19T13:46:45.168Z,99389.06
2023-04-19T13:49:11.821Z,99381.16
2023-04-19T13:51:49.072Z,99374.56
2023-04-19T13:54:21.258Z,99372.97
2023-04-19T13:56:50.539Z,99369.91
2023-04-19T13:59:18.789Z,99372.16
2023-04-19T14:01:45.306Z,99373.16
2023-04-19T14:04:12.013Z,99365.34
2023-04-19T14:06:38.742Z,99367.16
2023-04-19T14:09:05.280Z,99355.19
2023-04-19T14:11:32.341Z,99355.88
2023-04-19T14:13:58.895Z,99363.28
2023-04-19T14:16:25.669Z,99351.16
2023-04-19T14:18:52.705Z,99356.91
2023-04-19T14:21:19.388Z,99337.72
2023-04-19T14:23:45.969Z,99337.47
2023-04-19T14:26:12.612Z,99331.22
2023-04-19T14:28:39.106Z,99336.59
2023-04-19T14:31:06.399Z,99332.09
2023-04-19T14:33:33.275Z,99339.72
2023-04-19T14:35:59.943Z,99324.81
2023-04-19T14:38:26.528Z,99321.66
2023-04-19T14:40:53.100Z,99323.50
2023-04-19T14:43:19.620Z,99313.78
2023-04-19T14:45:48.722Z,99312.78
2023-04-19T14:48:15.368Z,99319.84
2023-04-19T14:50:41.902Z,99332.38
2023-04-19T14:53:08.836Z,99321.38
2023-04-19T14:55:37.692Z,99331.78
2023-04-19T14:58:04.702Z,99325.19
2023-04-19T15:00:31.574Z,99325.84
2023-04-19T15:02:58.203Z,99325.19
2023-04-19T15:05:27.657Z,99326.97
2023-04-19T15:07:54.348Z,99320.84
2023-04-19T15:10:21.096Z,99320.78
2023-04-19T15:12:47.691Z,99313.63
2023-04-19T15:15:14.237Z,99310.91
2023-04-19T15:17:41.246Z,99306.34
2023-04-19T15:20:09.223Z,99305.13
2023-04-19T15:22:35.809Z,99316.00
2023-04-19T15:25:02.489Z,99315.91
2023-04-19T15:27:29.550Z,99307.38
2023-04-19T15:29:56.055Z,99308.38
2023-04-19T15:32:22.670Z,99301.41
2023-04-19T15:34:49.214Z,99302.75
2023-04-19T15:37:15.940Z,99303.47
2023-04-19T15:39:43.623Z,99307.50
2023-04-19T15:42:10.290Z,99308.44
2023-04-19T15:44:36.835Z,99293.47
2023-04-19T15:47:03.648Z,99296.53
2023-04-19T15:49:30.536Z,99294.00
2023-04-19T15:51:57.113Z,99297.28
2023-04-19T15:54:23.650Z,99291.88
2023-04-19T15:56:50.341Z,99296.84
2023-04-19T15:59:16.991Z,99291.09
2023-04-19T16:01:43.890Z,99299.88
2023-04-19T16:04:11.668Z,99303.25
2023-04-19T16:06:38.234Z,99302.81
2023-04-19T16:09:04.894Z,99299.34
2023-04-19T16:11:31.477Z,99300.28
2023-04-19T16:13:57.977Z,99301.00
2023-04-19T16:16:26.721Z,99298.66
2023-04-19T16:18:53.359Z,99292.16
2023-04-19T16:21:19.916Z,99288.19
2023-04-19T16:23:46.487Z,99289.66
2023-04-19T16:26:13.074Z,99294.25
2023-04-19T16:28:39.586Z,99285.00
2023-04-19T16:31:06.160Z,99285.03
2023-04-19T16:33:32.734Z,99289.38
2023-04-19T16:35:59.290Z,99282.09
2023-04-19T16:38:25.842Z,99273.13
2023-04-19T16:40:53.389Z,99276.34
2023-04-19T16:43:20.898Z,99269.06
2023-04-19T16:45:48.332Z,99273.69
2023-04-19T16:48:15.053Z,99267.13
2023-04-19T16:50:42.244Z,99271.38
2023-04-19T16:53:08.843Z,99264.94
2023-04-19T16:55:36.768Z,99259.50
2023-04-19T16:58:03.350Z,99270.75
2023-04-19T17:00:29.929Z,99264.00
2023-04-19T17:02:56.613Z,99267.00
2023-04-19T17:05:23.437Z,99259.03
2023-04-19T17:07:51.053Z,99267.00
2023-04-19T17:10:17.613Z,99260.81
2023-04-19T17:12:44.968Z,99259.56
2023-04-19T17:15:11.720Z,99255.13
2023-04-19T17:17:38.314Z,99254.22
2023-04-19T17:20:06.263Z,99256.03
2023-04-19T17:22:32.928Z,99258.16
2023-04-19T17:25:00.428Z,99261.28
2023-04-19T17:27:27.028Z,99254.13
2023-04-19T17:29:53.657Z,99262.06
2023-04-19T17:32:20.279Z,99260.03
2023-04-19T17:34:46.882Z,99260.66
2023-04-19T17:37:13.403Z,99259.31
2023-04-19T17:39:40.337Z,99264.13
2023-04-19T17:42:06.921Z,99263.31
2023-04-19T17:44:33.553Z,99257.59
2023-04-19T17:47:00.297Z,99261.63
2023-04-19T17:49:27.148Z,99256.13
2023-04-19T17:51:55.673Z,99256.09
2023-04-19T17:54:22.235Z,99256.97
2023-04-19T17:56:49.064Z,99257.06
2023-04-19T17:59:16.762Z,99256.22
2023-04-19T18:01:43.616Z,99257.78
2023-04-19T18:04:14.111Z,99266.13
2023-04-19T18:06:41.162Z,99263.75
2023-04-19T18:09:07.767Z,99265.56
2023-04-19T18:11:34.438Z,99279.78
2023-04-19T18:14:01.051Z,99274.84
2023-04-19T18:16:27.660Z,99277.59
2023-04-19T18:18:54.293Z,99285.19
2023-04-19T18:21:20.827Z,99288.31
2023-04-19T18:23:48.084Z,99286.16
2023-04-19T18:26:14.636Z,99293.63
2023-04-19T18:28:41.165Z,99292.25
2023-04-19T18:31:08.612Z,99297.94
2023-04-19T18:33:35.508Z,99298.22
2023-04-19T18:36:02.026Z,99295.75
2023-04-19T18:38:28.591Z,99297.84
2023-04-19T18:40:55.185Z,99305.78
2023-04-19T18:43:21.930Z,99298.22
2023-04-19T18:45:55.815Z,99302.72
2023-04-19T18:48:27.481Z,99305.38
2023-04-19T18:50:54.968Z,99300.41
2023-04-19T18:53:21.517Z,99304.06
2023-04-19T18:55:48.566Z,99307.66
2023-04-19T18:58:15.138Z,99305.19
2023-04-19T19:00:41.859Z,99307.09
2023-04-19T19:03:19.165Z,99305.50
2023-04-19T19:05:55.597Z,99305.56
2023-04-19T19:08:22.504Z,99309.94
2023-04-19T19:11:14.223Z,99317.03
2023-04-19T19:13:36.633Z,99315.28
2023-04-19T19:16:05.327Z,99315.41
2023-04-19T19:18:32.202Z,99315.50
2023-04-19T19:21:00.215Z,99325.09
2023-04-19T19:25:58.092Z,99334.81
2023-04-19T19:28:24.781Z,99330.56
2023-04-19T19:30:51.460Z,99335.81
2023-04-19T19:33:18.488Z,99335.88
2023-04-19T19:35:45.752Z,99336.78
2023-04-19T19:38:12.314Z,99337.72
2023-04-19T19:41:04.163Z,99348.13
2023-04-19T19:43:25.649Z,99351.66
2023-04-19T19:45:52.319Z,99349.97
2023-04-19T19:48:18.835Z,99348.28
2023-04-19T19:51:17.396Z,99347.50
2023-04-19T19:53:32.566Z,99348.41
2023-04-19T19:55:59.863Z,99344.97
2023-04-19T20:01:03.309Z,99344.22
2023-04-19T20:03:37.813Z,99349.41
2023-04-19T20:08:40.132Z,99343.44
2023-04-19T20:11:09.539Z,99352.97
2023-04-19T20:13:36.645Z,99355.56
2023-04-19T20:16:03.447Z,99344.38
2023-04-19T20:18:30.273Z,99346.97
2023-04-19T20:20:57.941Z,99346.13
2023-04-19T20:23:24.832Z,99342.72
2023-04-19T20:25:52.135Z,99342.75
2023-04-19T20:28:18.829Z,99335.88
2023-04-19T20:30:45.684Z,99334.19
2023-04-19T20:33:12.385Z,99343.69
2023-04-19T20:35:39.058Z,99345.41
2023-04-19T20:38:07.658Z,99346.31
2023-04-19T20:40:34.288Z,99339.44
2023-04-19T20:43:01.172Z,99344.63
2023-04-19T20:45:27.850Z,99333.41
2023-04-19T20:47:55.712Z,99342.94
2023-04-19T20:50:23.019Z,99336.09
2023-04-19T20:52:49.635Z,99334.34
2023-04-19T20:55:16.555Z,99335.22
2023-04-19T20:57:43.223Z,99331.81
2023-04-19T21:00:10.500Z,99338.72
2023-04-19T21:02:37.203Z,99337.00
2023-04-19T21:05:04.054Z,99343.06
2023-04-19T21:07:30.787Z,99337.03
2023-04-19T21:09:57.320Z,99333.63
2023-04-19T21:12:24.276Z,99328.47
2023-04-19T21:14:52.412Z,99333.66
2023-04-19T21:17:19.155Z,99329.38
2023-04-19T21:19:45.727Z,99331.09
2023-04-19T21:22:12.270Z,99331.97
2023-04-19T21:24:38.810Z,99340.59
2023-04-19T21:27:05.649Z,99337.13
2023-04-19T21:29:32.784Z,99336.28
2023-04-19T21:31:59.469Z,99337.13
2023-04-19T21:34:26.942Z,99349.19
2023-04-19T21:36:53.472Z,99342.31
2023-04-19T21:39:20.033Z,99341.44
2023-04-19T21:41:46.709Z,99350.94
2023-04-19T21:44:13.245Z,99349.19
2023-04-19T21:46:41.391Z,99344.03
2023-04-19T21:49:08.173Z,99349.25
2023-04-19T21:51:34.709Z,99344.91
2023-04-19T21:54:01.376Z,99346.66
2023-04-19T21:56:28.194Z,99345.75
2023-04-19T21:58:54.756Z,99341.47
2023-04-19T22:01:21.449Z,99343.19
2023-04-19T22:03:49.010Z,99344.03
2023-04-19T22:06:17.099Z,99344.94
2023-04-19T22:08:44.048Z,99340.63
2023-04-19T22:11:12.007Z,99344.06
2023-04-19T22:13:38.728Z,99338.88
2023-04-19T22:16:05.967Z,99334.59
2023-04-19T22:18:34.638Z,99330.31
2023-04-19T22:21:01.438Z,99335.44
2023-04-19T22:23:28.458Z,99332.00
2023-04-19T22:25:55.060Z,99335.47
2023-04-19T22:28:21.622Z,99330.28
2023-04-19T22:30:48.205Z,99338.91
2023-04-19T22:33:14.731Z,99338.03
2023-04-19T22:35:41.271Z,99331.13
2023-04-19T22:38:08.187Z,99332.88
2023-04-19T22:40:34.780Z,99329.41
2023-04-19T22:43:01.339Z,99332.84
2023-04-19T22:45:27.916Z,99324.22
2023-04-19T22:47:54.568Z,99326.81
2023-04-19T22:50:23.669Z,99325.94
2023-04-19T22:52:50.835Z,99335.41
2023-04-19T22:55:17.493Z,99329.34
2023-04-19T22:57:44.008Z,99326.75
2023-04-19T23:00:11.137Z,99324.16
2023-04-19T23:02:38.653Z,99321.56
2023-04-19T23:05:06.326Z,99318.16
2023-04-19T23:07:33.273Z,99312.97
2023-04-19T23:10:00.096Z,99312.09
2023-04-19T23:12:26.838Z,99312.09
2023-04-19T23:14:54.197Z,99305.22
2023-04-19T23:17:21.154Z,99310.38
2023-04-19T23:19:47.853Z,99312.06
2023-04-19T23:22:14.435Z,99312.91
2023-04-19T23:24:40.980Z,99308.63
2023-04-19T23:27:07.628Z,99309.44
2023-04-19T23:29:34.219Z,99317.19
2023-04-19T23:32:02.190Z,99306.81
2023-04-19T23:34:28.810Z,99308.53
2023-04-19T23:36:56.791Z,99311.97
2023-04-19T23:39:23.373Z,99312.84
2023-04-19T23:41:49.918Z,99300.78
2023-04-19T23:44:16.480Z,99300.75
2023-04-19T23:46:43.079Z,99298.16
2023-04-19T23:49:09.693Z,99297.28
2023-04-19T23:51:36.462Z,99291.28
2023-04-19T23:54:03.361Z,99296.44
2023-04-19T23:56:29.999Z,99287.00
2023-04-19T23:58:57.471Z,99290.41
